KSZL/SZL METAR and TAF weather

Enter ICAO airport designator
Station Type Date Time Source
KSZL METAR 2021/08/04 18:56 UTC NOAA

KSZL 041856Z 13006KT 10SM BKN040 28/15 A3009 RMK AO2A SLPNO T02750152 $


Station Type Date Time Source
KSZL Decoded METAR 2021/08/04 18:56 UTC NOAA

Whiteman Air Force Base, MO, United States (KSZL) 38-44N 093-33W
Aug 04, 2021 - 02:56 PM EDT / 2021.08.04 1856 UTC
Wind: from the SE (130 degrees) at 7 MPH (6 KT):0
Visibility: 10 mile(s):0
Sky conditions: mostly cloudy
Temperature: 81.5 F (27.5 C)
Dew Point: 59.4 F (15.2 C)
Relative Humidity: 47%
Pressure (altimeter): 30.09 in. Hg (1018 hPa)
ob: KSZL 041856Z 13006KT 10SM BKN040 28/15 A3009 RMK AO2A SLPNO T02750152
cycle: 19

Station Type Date Time Source
KSZL TAF 2021/08/04 19:03 UTC NOAA

TAF KSZL 041900Z 0419/0601 16009KT 9999 SCT050 QNH3006INS
BECMG 0508/0509 18009KT 9999 BKN050 QNH3003INS
TEMPO 0515/0519 6000 -RA BKN040
BECMG 0520/0521 19006KT 9999 BKN030 QNH2999INS TX28/0420Z TN16/0511Z

Example: see airport list